sensor_id;sensor_type;location;lat;lon;timestamp;temperature;humidity
3678;DHT22;1855;50.934;6.958;2023-04-25T00:00:39;7.50;96.40
3678;DHT22;1855;50.934;6.958;2023-04-25T00:03:06;7.50;96.30
3678;DHT22;1855;50.934;6.958;2023-04-25T00:05:35;7.50;96.30
3678;DHT22;1855;50.934;6.958;2023-04-25T00:08:03;7.50;96.30
3678;DHT22;1855;50.934;6.958;2023-04-25T00:10:30;7.50;96.80
3678;DHT22;1855;50.934;6.958;2023-04-25T00:12:57;7.60;96.60
3678;DHT22;1855;50.934;6.958;2023-04-25T00:15:24;7.50;96.10
3678;DHT22;1855;50.934;6.958;2023-04-25T00:17:51;7.50;96.40
3678;DHT22;1855;50.934;6.958;2023-04-25T00:20:19;7.50;96.20
3678;DHT22;1855;50.934;6.958;2023-04-25T00:22:47;7.50;96.10
3678;DHT22;1855;50.934;6.958;2023-04-25T00:25:14;7.40;96.20
3678;DHT22;1855;50.934;6.958;2023-04-25T00:27:40;7.40;95.90
3678;DHT22;1855;50.934;6.958;2023-04-25T00:30:08;7.40;95.80
3678;DHT22;1855;50.934;6.958;2023-04-25T00:32:35;7.30;96.00
3678;DHT22;1855;50.934;6.958;2023-04-25T00:35:03;7.30;96.00
3678;DHT22;1855;50.934;6.958;2023-04-25T00:37:30;7.30;96.20
3678;DHT22;1855;50.934;6.958;2023-04-25T00:39:58;7.20;96.60
3678;DHT22;1855;50.934;6.958;2023-04-25T00:42:25;7.20;96.80
3678;DHT22;1855;50.934;6.958;2023-04-25T00:44:52;7.10;96.80
3678;DHT22;1855;50.934;6.958;2023-04-25T00:47:19;7.10;96.90
3678;DHT22;1855;50.934;6.958;2023-04-25T00:49:46;7.00;97.10
3678;DHT22;1855;50.934;6.958;2023-04-25T00:52:13;7.00;97.40
3678;DHT22;1855;50.934;6.958;2023-04-25T00:54:40;6.90;97.50
3678;DHT22;1855;50.934;6.958;2023-04-25T00:57:08;6.80;97.80
3678;DHT22;1855;50.934;6.958;2023-04-25T00:59:36;6.80;98.20
3678;DHT22;1855;50.934;6.958;2023-04-25T01:02:04;6.70;98.30
3678;DHT22;1855;50.934;6.958;2023-04-25T01:04:30;6.70;98.50
3678;DHT22;1855;50.934;6.958;2023-04-25T01:06:58;6.70;98.50
3678;DHT22;1855;50.934;6.958;2023-04-25T01:09:25;6.60;98.80
3678;DHT22;1855;50.934;6.958;2023-04-25T01:11:52;6.60;99.00
3678;DHT22;1855;50.934;6.958;2023-04-25T01:14:20;6.50;99.10
3678;DHT22;1855;50.934;6.958;2023-04-25T01:16:47;6.50;99.50
3678;DHT22;1855;50.934;6.958;2023-04-25T01:19:16;6.50;99.40
3678;DHT22;1855;50.934;6.958;2023-04-25T01:21:45;6.40;99.60
3678;DHT22;1855;50.934;6.958;2023-04-25T01:24:12;6.40;99.70
3678;DHT22;1855;50.934;6.958;2023-04-25T01:26:40;6.40;99.90
3678;DHT22;1855;50.934;6.958;2023-04-25T01:29:10;6.30;99.90
3678;DHT22;1855;50.934;6.958;2023-04-25T01:31:36;6.30;99.90
3678;DHT22;1855;50.934;6.958;2023-04-25T01:34:04;6.30;99.90
3678;DHT22;1855;50.934;6.958;2023-04-25T01:36:31;6.30;99.90
3678;DHT22;1855;50.934;6.958;2023-04-25T01:38:59;6.20;99.90
3678;DHT22;1855;50.934;6.958;2023-04-25T01:41:26;6.20;99.90
3678;DHT22;1855;50.934;6.958;2023-04-25T01:43:53;6.20;99.90
3678;DHT22;1855;50.934;6.958;2023-04-25T01:46:20;6.20;99.90
3678;DHT22;1855;50.934;6.958;2023-04-25T01:48:47;6.20;99.90
3678;DHT22;1855;50.934;6.958;2023-04-25T01:51:14;6.20;99.90
3678;DHT22;1855;50.934;6.958;2023-04-25T01:53:41;6.10;99.90
3678;DHT22;1855;50.934;6.958;2023-04-25T01:56:10;6.10;99.90
3678;DHT22;1855;50.934;6.958;2023-04-25T01:58:37;6.10;99.90
3678;DHT22;1855;50.934;6.958;2023-04-25T02:01:03;6.10;99.90
3678;DHT22;1855;50.934;6.958;2023-04-25T02:03:31;6.10;99.90
3678;DHT22;1855;50.934;6.958;2023-04-25T02:05:58;6.00;99.90
3678;DHT22;1855;50.934;6.958;2023-04-25T02:08:24;6.00;99.90
3678;DHT22;1855;50.934;6.958;2023-04-25T02:10:52;6.00;99.90
3678;DHT22;1855;50.934;6.958;2023-04-25T02:13:20;6.00;99.90
3678;DHT22;1855;50.934;6.958;2023-04-25T02:15:46;5.90;99.90
3678;DHT22;1855;50.934;6.958;2023-04-25T02:18:13;5.90;99.90
3678;DHT22;1855;50.934;6.958;2023-04-25T02:20:41;5.90;99.90
3678;DHT22;1855;50.934;6.958;2023-04-25T02:23:08;5.90;99.90
3678;DHT22;1855;50.934;6.958;2023-04-25T02:25:35;6.00;99.90
3678;DHT22;1855;50.934;6.958;2023-04-25T02:28:02;6.00;99.90
3678;DHT22;1855;50.934;6.958;2023-04-25T02:30:30;6.10;99.90
3678;DHT22;1855;50.934;6.958;2023-04-25T02:32:57;6.10;99.90
3678;DHT22;1855;50.934;6.958;2023-04-25T02:35:23;6.10;99.90
3678;DHT22;1855;50.934;6.958;2023-04-25T02:37:50;6.20;99.90
3678;DHT22;1855;50.934;6.958;2023-04-25T02:40:17;6.20;99.90
3678;DHT22;1855;50.934;6.958;2023-04-25T02:42:44;6.30;99.90
3678;DHT22;1855;50.934;6.958;2023-04-25T02:45:11;6.30;99.90
3678;DHT22;1855;50.934;6.958;2023-04-25T02:47:39;6.30;99.90
3678;DHT22;1855;50.934;6.958;2023-04-25T02:50:06;6.30;99.90
3678;DHT22;1855;50.934;6.958;2023-04-25T02:52:33;6.40;99.90
3678;DHT22;1855;50.934;6.958;2023-04-25T02:55:00;6.40;99.90
3678;DHT22;1855;50.934;6.958;2023-04-25T02:57:27;6.40;99.90
3678;DHT22;1855;50.934;6.958;2023-04-25T02:59:54;6.40;99.90
3678;DHT22;1855;50.934;6.958;2023-04-25T03:02:21;6.40;99.90
3678;DHT22;1855;50.934;6.958;2023-04-25T03:04:49;6.40;99.90
3678;DHT22;1855;50.934;6.958;2023-04-25T03:07:15;6.40;99.90
3678;DHT22;1855;50.934;6.958;2023-04-25T03:09:42;6.50;99.90
3678;DHT22;1855;50.934;6.958;2023-04-25T03:12:09;6.50;99.90
3678;DHT22;1855;50.934;6.958;2023-04-25T03:14:35;6.50;99.90
3678;DHT22;1855;50.934;6.958;2023-04-25T03:17:02;6.50;99.90
3678;DHT22;1855;50.934;6.958;2023-04-25T03:19:29;6.50;99.90
3678;DHT22;1855;50.934;6.958;2023-04-25T03:21:57;6.60;99.90
3678;DHT22;1855;50.934;6.958;2023-04-25T03:24:24;6.50;99.90
3678;DHT22;1855;50.934;6.958;2023-04-25T03:26:51;6.50;99.90
3678;DHT22;1855;50.934;6.958;2023-04-25T03:29:18;6.50;99.90
3678;DHT22;1855;50.934;6.958;2023-04-25T03:31:45;6.60;99.90
3678;DHT22;1855;50.934;6.958;2023-04-25T03:34:11;6.60;99.90
3678;DHT22;1855;50.934;6.958;2023-04-25T03:36:40;6.60;99.90
3678;DHT22;1855;50.934;6.958;2023-04-25T03:39:08;6.60;99.90
3678;DHT22;1855;50.934;6.958;2023-04-25T03:41:34;6.60;99.90
3678;DHT22;1855;50.934;6.958;2023-04-25T03:44:01;6.60;99.90
3678;DHT22;1855;50.934;6.958;2023-04-25T03:46:28;6.60;99.90
3678;DHT22;1855;50.934;6.958;2023-04-25T03:48:55;6.60;99.90
3678;DHT22;1855;50.934;6.958;2023-04-25T03:51:21;6.60;99.90
3678;DHT22;1855;50.934;6.958;2023-04-25T03:53:49;6.60;99.90
3678;DHT22;1855;50.934;6.958;2023-04-25T03:56:17;6.60;99.90
3678;DHT22;1855;50.934;6.958;2023-04-25T03:58:44;6.70;99.90
3678;DHT22;1855;50.934;6.958;2023-04-25T04:01:10;6.70;99.90
3678;DHT22;1855;50.934;6.958;2023-04-25T04:03:37;6.70;99.90
3678;DHT22;1855;50.934;6.958;2023-04-25T04:06:05;6.70;99.90
3678;DHT22;1855;50.934;6.958;2023-04-25T04:08:32;6.70;99.90
3678;DHT22;1855;50.934;6.958;2023-04-25T04:10:59;6.70;99.90
3678;DHT22;1855;50.934;6.958;2023-04-25T04:13:27;6.70;99.90
3678;DHT22;1855;50.934;6.958;2023-04-25T04:15:55;6.70;99.90
3678;DHT22;1855;50.934;6.958;2023-04-25T04:18:22;6.70;99.90
3678;DHT22;1855;50.934;6.958;2023-04-25T04:20:49;6.70;99.90
3678;DHT22;1855;50.934;6.958;2023-04-25T04:23:16;6.70;99.90
3678;DHT22;1855;50.934;6.958;2023-04-25T04:25:43;6.70;99.90
3678;DHT22;1855;50.934;6.958;2023-04-25T04:28:09;6.80;99.90
3678;DHT22;1855;50.934;6.958;2023-04-25T04:30:39;6.80;99.90
3678;DHT22;1855;50.934;6.958;2023-04-25T04:33:06;6.80;99.90
3678;DHT22;1855;50.934;6.958;2023-04-25T04:35:34;6.80;99.90
3678;DHT22;1855;50.934;6.958;2023-04-25T04:38:00;6.80;99.90
3678;DHT22;1855;50.934;6.958;2023-04-25T04:40:27;6.80;99.90
3678;DHT22;1855;50.934;6.958;2023-04-25T04:42:55;6.90;99.90
3678;DHT22;1855;50.934;6.958;2023-04-25T04:45:22;6.90;99.90
3678;DHT22;1855;50.934;6.958;2023-04-25T04:47:51;6.90;99.90
3678;DHT22;1855;50.934;6.958;2023-04-25T04:50:17;7.00;99.90
3678;DHT22;1855;50.934;6.958;2023-04-25T04:52:45;6.90;99.90
3678;DHT22;1855;50.934;6.958;2023-04-25T04:55:12;6.90;99.90
3678;DHT22;1855;50.934;6.958;2023-04-25T04:57:38;6.90;99.90
3678;DHT22;1855;50.934;6.958;2023-04-25T05:00:06;6.90;99.90
3678;DHT22;1855;50.934;6.958;2023-04-25T05:02:37;6.90;99.90
3678;DHT22;1855;50.934;6.958;2023-04-25T05:05:05;7.00;99.90
3678;DHT22;1855;50.934;6.958;2023-04-25T05:07:32;7.00;99.90
3678;DHT22;1855;50.934;6.958;2023-04-25T05:09:59;7.00;99.90
3678;DHT22;1855;50.934;6.958;2023-04-25T05:12:26;7.00;99.90
3678;DHT22;1855;50.934;6.958;2023-04-25T05:14:52;7.00;99.90
3678;DHT22;1855;50.934;6.958;2023-04-25T05:17:19;7.10;99.90
3678;DHT22;1855;50.934;6.958;2023-04-25T05:19:46;7.10;99.90
3678;DHT22;1855;50.934;6.958;2023-04-25T05:22:14;7.10;99.90
3678;DHT22;1855;50.934;6.958;2023-04-25T05:24:41;7.10;99.90
3678;DHT22;1855;50.934;6.958;2023-04-25T05:27:08;7.10;99.90
3678;DHT22;1855;50.934;6.958;2023-04-25T05:29:34;7.00;99.90
3678;DHT22;1855;50.934;6.958;2023-04-25T05:32:01;7.10;99.90
3678;DHT22;1855;50.934;6.958;2023-04-25T05:34:28;7.20;99.90
3678;DHT22;1855;50.934;6.958;2023-04-25T05:36:55;7.20;99.90
3678;DHT22;1855;50.934;6.958;2023-04-25T05:39:23;7.20;99.60
3678;DHT22;1855;50.934;6.958;2023-04-25T05:41:50;7.20;99.70
3678;DHT22;1855;50.934;6.958;2023-04-25T05:44:17;7.20;99.50
3678;DHT22;1855;50.934;6.958;2023-04-25T05:46:43;7.20;99.30
3678;DHT22;1855;50.934;6.958;2023-04-25T05:49:10;7.20;99.50
3678;DHT22;1855;50.934;6.958;2023-04-25T05:51:37;7.10;99.50
3678;DHT22;1855;50.934;6.958;2023-04-25T05:54:04;7.10;99.50
3678;DHT22;1855;50.934;6.958;2023-04-25T05:56:32;7.10;99.50
3678;DHT22;1855;50.934;6.958;2023-04-25T05:58:58;7.20;99.40
3678;DHT22;1855;50.934;6.958;2023-04-25T06:01:25;7.20;99.70
3678;DHT22;1855;50.934;6.958;2023-04-25T06:03:52;7.30;99.40
3678;DHT22;1855;50.934;6.958;2023-04-25T06:06:19;7.40;99.10
3678;DHT22;1855;50.934;6.958;2023-04-25T06:08:46;7.50;98.70
3678;DHT22;1855;50.934;6.958;2023-04-25T06:11:12;7.50;98.40
3678;DHT22;1855;50.934;6.958;2023-04-25T06:13:40;7.50;98.50
3678;DHT22;1855;50.934;6.958;2023-04-25T06:16:10;7.70;98.30
3678;DHT22;1855;50.934;6.958;2023-04-25T06:18:37;7.80;97.90
3678;DHT22;1855;50.934;6.958;2023-04-25T06:21:04;7.90;96.40
3678;DHT22;1855;50.934;6.958;2023-04-25T06:23:31;8.00;96.60
3678;DHT22;1855;50.934;6.958;2023-04-25T06:25:57;8.10;96.20
3678;DHT22;1855;50.934;6.958;2023-04-25T06:28:24;8.30;95.40
3678;DHT22;1855;50.934;6.958;2023-04-25T06:30:52;8.40;94.50
3678;DHT22;1855;50.934;6.958;2023-04-25T06:33:19;8.40;94.10
3678;DHT22;1855;50.934;6.958;2023-04-25T06:35:46;8.50;93.60
3678;DHT22;1855;50.934;6.958;2023-04-25T06:38:13;8.40;92.50
3678;DHT22;1855;50.934;6.958;2023-04-25T06:40:40;8.40;93.80
3678;DHT22;1855;50.934;6.958;2023-04-25T06:43:07;8.40;94.00
3678;DHT22;1855;50.934;6.958;2023-04-25T06:45:33;8.60;93.80
3678;DHT22;1855;50.934;6.958;2023-04-25T06:48:02;8.70;93.50
3678;DHT22;1855;50.934;6.958;2023-04-25T06:50:28;8.70;92.50
3678;DHT22;1855;50.934;6.958;2023-04-25T06:52:55;8.70;93.00
3678;DHT22;1855;50.934;6.958;2023-04-25T06:55:22;8.70;93.00
3678;DHT22;1855;50.934;6.958;2023-04-25T06:57:48;8.70;93.60
3678;DHT22;1855;50.934;6.958;2023-04-25T07:00:16;8.90;93.10
3678;DHT22;1855;50.934;6.958;2023-04-25T07:02:43;9.00;91.40
3678;DHT22;1855;50.934;6.958;2023-04-25T07:05:11;9.10;91.70
3678;DHT22;1855;50.934;6.958;2023-04-25T07:07:38;9.20;91.70
3678;DHT22;1855;50.934;6.958;2023-04-25T07:10:05;9.50;91.30
3678;DHT22;1855;50.934;6.958;2023-04-25T07:12:32;9.70;88.00
3678;DHT22;1855;50.934;6.958;2023-04-25T07:14:58;9.70;85.80
3678;DHT22;1855;50.934;6.958;2023-04-25T07:17:31;9.60;85.20
3678;DHT22;1855;50.934;6.958;2023-04-25T07:19:58;9.50;87.90
3678;DHT22;1855;50.934;6.958;2023-04-25T07:22:26;9.50;87.90
3678;DHT22;1855;50.934;6.958;2023-04-25T07:24:53;9.60;87.90
3678;DHT22;1855;50.934;6.958;2023-04-25T07:27:20;9.80;86.30
3678;DHT22;1855;50.934;6.958;2023-04-25T07:29:46;9.90;87.00
3678;DHT22;1855;50.934;6.958;2023-04-25T07:32:13;10.20;85.50
3678;DHT22;1855;50.934;6.958;2023-04-25T07:34:40;10.40;83.60
3678;DHT22;1855;50.934;6.958;2023-04-25T07:37:07;10.50;80.90
3678;DHT22;1855;50.934;6.958;2023-04-25T07:39:35;10.70;80.70
3678;DHT22;1855;50.934;6.958;2023-04-25T07:42:02;10.60;78.50
3678;DHT22;1855;50.934;6.958;2023-04-25T07:44:29;10.50;80.60
3678;DHT22;1855;50.934;6.958;2023-04-25T07:46:56;10.70;79.50
3678;DHT22;1855;50.934;6.958;2023-04-25T07:49:23;10.90;76.30
3678;DHT22;1855;50.934;6.958;2023-04-25T07:51:50;10.90;75.50
3678;DHT22;1855;50.934;6.958;2023-04-25T07:54:17;10.90;73.90
3678;DHT22;1855;50.934;6.958;2023-04-25T07:56:45;10.90;73.80
3678;DHT22;1855;50.934;6.958;2023-04-25T07:59:12;11.00;74.50
3678;DHT22;1855;50.934;6.958;2023-04-25T08:01:38;11.00;74.20
3678;DHT22;1855;50.934;6.958;2023-04-25T08:04:05;11.00;72.30
3678;DHT22;1855;50.934;6.958;2023-04-25T08:06:32;11.00;73.50
3678;DHT22;1855;50.934;6.958;2023-04-25T08:08:59;11.10;71.50
3678;DHT22;1855;50.934;6.958;2023-04-25T08:11:26;11.00;72.20
3678;DHT22;1855;50.934;6.958;2023-04-25T08:13:54;10.90;71.10
3678;DHT22;1855;50.934;6.958;2023-04-25T08:16:21;10.80;73.00
3678;DHT22;1855;50.934;6.958;2023-04-25T08:18:47;10.90;73.20
3678;DHT22;1855;50.934;6.958;2023-04-25T08:21:15;11.10;73.90
3678;DHT22;1855;50.934;6.958;2023-04-25T08:23:41;11.30;72.40
3678;DHT22;1855;50.934;6.958;2023-04-25T08:26:09;11.50;71.40
3678;DHT22;1855;50.934;6.958;2023-04-25T08:28:35;11.70;69.60
3678;DHT22;1855;50.934;6.958;2023-04-25T08:31:04;11.80;66.00
3678;DHT22;1855;50.934;6.958;2023-04-25T08:33:30;11.90;66.30
3678;DHT22;1855;50.934;6.958;2023-04-25T08:35:58;12.00;63.20
3678;DHT22;1855;50.934;6.958;2023-04-25T08:38:24;11.80;63.40
3678;DHT22;1855;50.934;6.958;2023-04-25T08:40:51;11.80;65.00
3678;DHT22;1855;50.934;6.958;2023-04-25T08:43:20;11.90;62.10
3678;DHT22;1855;50.934;6.958;2023-04-25T08:45:47;12.00;61.80
3678;DHT22;1855;50.934;6.958;2023-04-25T08:48:16;12.10;62.60
3678;DHT22;1855;50.934;6.958;2023-04-25T08:50:48;12.20;61.30
3678;DHT22;1855;50.934;6.958;2023-04-25T08:53:16;12.20;60.10
3678;DHT22;1855;50.934;6.958;2023-04-25T08:55:46;12.30;60.20
3678;DHT22;1855;50.934;6.958;2023-04-25T08:58:13;12.20;60.30
3678;DHT22;1855;50.934;6.958;2023-04-25T09:00:40;12.30;58.40
3678;DHT22;1855;50.934;6.958;2023-04-25T09:03:07;12.20;54.50
3678;DHT22;1855;50.934;6.958;2023-04-25T09:05:35;12.10;57.10
3678;DHT22;1855;50.934;6.958;2023-04-25T09:08:02;12.10;56.30
3678;DHT22;1855;50.934;6.958;2023-04-25T09:10:29;11.90;58.10
3678;DHT22;1855;50.934;6.958;2023-04-25T09:13:03;11.80;57.40
3678;DHT22;1855;50.934;6.958;2023-04-25T09:15:31;11.70;59.00
3678;DHT22;1855;50.934;6.958;2023-04-25T09:17:58;11.60;59.00
3678;DHT22;1855;50.934;6.958;2023-04-25T09:20:25;11.50;58.40
3678;DHT22;1855;50.934;6.958;2023-04-25T09:23:03;11.40;59.30
3678;DHT22;1855;50.934;6.958;2023-04-25T09:25:34;11.30;60.80
3678;DHT22;1855;50.934;6.958;2023-04-25T09:28:04;11.20;60.90
3678;DHT22;1855;50.934;6.958;2023-04-25T09:30:32;11.20;59.10
3678;DHT22;1855;50.934;6.958;2023-04-25T09:33:04;11.20;60.80
3678;DHT22;1855;50.934;6.958;2023-04-25T09:35:36;11.30;61.40
3678;DHT22;1855;50.934;6.958;2023-04-25T09:38:09;11.40;60.40
3678;DHT22;1855;50.934;6.958;2023-04-25T09:40:39;11.60;59.30
3678;DHT22;1855;50.934;6.958;2023-04-25T09:43:09;11.60;56.60
3678;DHT22;1855;50.934;6.958;2023-04-25T09:45:41;11.60;56.10
3678;DHT22;1855;50.934;6.958;2023-04-25T09:48:11;11.60;53.10
3678;DHT22;1855;50.934;6.958;2023-04-25T09:50:39;11.40;52.10
3678;DHT22;1855;50.934;6.958;2023-04-25T09:53:07;11.00;53.40
3678;DHT22;1855;50.934;6.958;2023-04-25T09:55:34;10.80;55.70
3678;DHT22;1855;50.934;6.958;2023-04-25T09:58:05;10.80;58.60
3678;DHT22;1855;50.934;6.958;2023-04-25T10:00:33;11.00;57.90
3678;DHT22;1855;50.934;6.958;2023-04-25T10:03:01;11.30;57.20
3678;DHT22;1855;50.934;6.958;2023-04-25T10:05:32;11.50;57.50
3678;DHT22;1855;50.934;6.958;2023-04-25T10:08:00;11.60;56.50
3678;DHT22;1855;50.934;6.958;2023-04-25T10:10:30;11.50;55.20
3678;DHT22;1855;50.934;6.958;2023-04-25T10:13:03;11.30;55.30
3678;DHT22;1855;50.934;6.958;2023-04-25T10:15:31;11.20;56.60
3678;DHT22;1855;50.934;6.958;2023-04-25T10:17:59;10.90;58.90
3678;DHT22;1855;50.934;6.958;2023-04-25T10:20:26;10.60;62.10
3678;DHT22;1855;50.934;6.958;2023-04-25T10:22:54;10.50;63.10
3678;DHT22;1855;50.934;6.958;2023-04-25T10:25:23;10.50;61.90
3678;DHT22;1855;50.934;6.958;2023-04-25T10:27:52;10.50;62.10
3678;DHT22;1855;50.934;6.958;2023-04-25T10:30:19;10.60;62.00
3678;DHT22;1855;50.934;6.958;2023-04-25T10:32:47;10.80;61.30
3678;DHT22;1855;50.934;6.958;2023-04-25T10:35:16;11.00;56.10
3678;DHT22;1855;50.934;6.958;2023-04-25T10:37:57;11.00;56.40
3678;DHT22;1855;50.934;6.958;2023-04-25T10:40:24;11.00;57.40
3678;DHT22;1855;50.934;6.958;2023-04-25T10:42:53;11.00;57.60
3678;DHT22;1855;50.934;6.958;2023-04-25T10:45:20;11.10;58.90
3678;DHT22;1855;50.934;6.958;2023-04-25T10:47:47;11.60;54.00
3678;DHT22;1855;50.934;6.958;2023-04-25T10:50:14;12.00;51.50
3678;DHT22;1855;50.934;6.958;2023-04-25T10:52:41;12.40;50.40
3678;DHT22;1855;50.934;6.958;2023-04-25T10:55:08;12.30;48.40
3678;DHT22;1855;50.934;6.958;2023-04-25T10:57:40;12.10;49.50
3678;DHT22;1855;50.934;6.958;2023-04-25T11:00:11;11.80;52.10
3678;DHT22;1855;50.934;6.958;2023-04-25T11:02:43;11.60;53.00
3678;DHT22;1855;50.934;6.958;2023-04-25T11:05:20;11.40;51.70
3678;DHT22;1855;50.934;6.958;2023-04-25T11:07:50;11.30;53.10
3678;DHT22;1855;50.934;6.958;2023-04-25T11:10:18;11.10;54.00
3678;DHT22;1855;50.934;6.958;2023-04-25T11:12:45;11.00;55.30
3678;DHT22;1855;50.934;6.958;2023-04-25T11:15:14;11.00;56.20
3678;DHT22;1855;50.934;6.958;2023-04-25T11:17:41;11.00;56.70
3678;DHT22;1855;50.934;6.958;2023-04-25T11:20:09;10.80;56.30
3678;DHT22;1855;50.934;6.958;2023-04-25T11:22:38;10.80;55.70
3678;DHT22;1855;50.934;6.958;2023-04-25T11:25:06;10.90;54.80
3678;DHT22;1855;50.934;6.958;2023-04-25T11:27:33;11.00;52.30
3678;DHT22;1855;50.934;6.958;2023-04-25T11:30:10;11.10;51.70
3678;DHT22;1855;50.934;6.958;2023-04-25T11:32:39;11.20;50.30
3678;DHT22;1855;50.934;6.958;2023-04-25T11:35:06;11.40;50.90
3678;DHT22;1855;50.934;6.958;2023-04-25T11:37:33;11.60;52.30
3678;DHT22;1855;50.934;6.958;2023-04-25T11:40:00;11.90;49.70
3678;DHT22;1855;50.934;6.958;2023-04-25T11:42:27;12.20;50.00
3678;DHT22;1855;50.934;6.958;2023-04-25T11:44:54;12.50;49.60
3678;DHT22;1855;50.934;6.958;2023-04-25T11:47:28;12.80;47.60
3678;DHT22;1855;50.934;6.958;2023-04-25T11:49:57;13.10;47.60
3678;DHT22;1855;50.934;6.958;2023-04-25T11:52:24;13.60;49.00
3678;DHT22;1855;50.934;6.958;2023-04-25T11:54:51;14.20;46.70
3678;DHT22;1855;50.934;6.958;2023-04-25T11:57:19;14.20;44.10
3678;DHT22;1855;50.934;6.958;2023-04-25T11:59:46;14.00;43.70
3678;DHT22;1855;50.934;6.958;2023-04-25T12:02:24;14.20;44.20
3678;DHT22;1855;50.934;6.958;2023-04-25T12:04:51;14.40;41.90
3678;DHT22;1855;50.934;6.958;2023-04-25T12:07:20;14.40;39.50
3678;DHT22;1855;50.934;6.958;2023-04-25T12:09:51;14.60;40.80
3678;DHT22;1855;50.934;6.958;2023-04-25T12:12:18;14.50;39.00
3678;DHT22;1855;50.934;6.958;2023-04-25T12:14:47;14.60;40.10
3678;DHT22;1855;50.934;6.958;2023-04-25T12:17:14;14.80;37.00
3678;DHT22;1855;50.934;6.958;2023-04-25T12:19:41;14.80;37.50
3678;DHT22;1855;50.934;6.958;2023-04-25T12:22:21;14.90;36.60
3678;DHT22;1855;50.934;6.958;2023-04-25T12:24:48;14.80;35.70
3678;DHT22;1855;50.934;6.958;2023-04-25T12:27:16;14.70;34.90
3678;DHT22;1855;50.934;6.958;2023-04-25T12:29:51;15.00;35.40
3678;DHT22;1855;50.934;6.958;2023-04-25T12:32:18;15.70;34.50
3678;DHT22;1855;50.934;6.958;2023-04-25T12:34:44;15.90;35.00
3678;DHT22;1855;50.934;6.958;2023-04-25T12:37:11;16.00;35.60
3678;DHT22;1855;50.934;6.958;2023-04-25T12:39:39;16.10;35.70
3678;DHT22;1855;50.934;6.958;2023-04-25T12:42:06;16.00;35.30
3678;DHT22;1855;50.934;6.958;2023-04-25T12:44:37;15.70;36.60
3678;DHT22;1855;50.934;6.958;2023-04-25T12:47:03;15.40;36.40
3678;DHT22;1855;50.934;6.958;2023-04-25T12:49:30;15.10;37.10
3678;DHT22;1855;50.934;6.958;2023-04-25T12:51:57;14.70;38.30
3678;DHT22;1855;50.934;6.958;2023-04-25T12:54:24;14.60;37.80
3678;DHT22;1855;50.934;6.958;2023-04-25T12:56:52;14.50;38.60
3678;DHT22;1855;50.934;6.958;2023-04-25T12:59:20;14.40;39.50
3678;DHT22;1855;50.934;6.958;2023-04-25T13:01:47;14.40;40.80
3678;DHT22;1855;50.934;6.958;2023-04-25T13:04:13;14.30;39.70
3678;DHT22;1855;50.934;6.958;2023-04-25T13:06:41;14.00;41.80
3678;DHT22;1855;50.934;6.958;2023-04-25T13:09:07;13.80;42.30
3678;DHT22;1855;50.934;6.958;2023-04-25T13:11:34;13.70;42.50
3678;DHT22;1855;50.934;6.958;2023-04-25T13:14:03;13.60;42.40
3678;DHT22;1855;50.934;6.958;2023-04-25T13:16:29;13.70;41.30
3678;DHT22;1855;50.934;6.958;2023-04-25T13:18:56;13.70;39.60
3678;DHT22;1855;50.934;6.958;2023-04-25T13:21:23;13.50;40.70
3678;DHT22;1855;50.934;6.958;2023-04-25T13:23:50;13.60;40.00
3678;DHT22;1855;50.934;6.958;2023-04-25T13:26:16;13.70;39.80
3678;DHT22;1855;50.934;6.958;2023-04-25T13:28:43;14.00;39.70
3678;DHT22;1855;50.934;6.958;2023-04-25T13:31:11;14.30;38.50
3678;DHT22;1855;50.934;6.958;2023-04-25T13:33:38;14.70;37.20
3678;DHT22;1855;50.934;6.958;2023-04-25T13:36:05;15.40;34.50
3678;DHT22;1855;50.934;6.958;2023-04-25T13:38:32;15.80;33.80
3678;DHT22;1855;50.934;6.958;2023-04-25T13:40:58;16.40;33.90
3678;DHT22;1855;50.934;6.958;2023-04-25T13:43:26;17.30;30.70
3678;DHT22;1855;50.934;6.958;2023-04-25T13:45:53;18.20;30.00
3678;DHT22;1855;50.934;6.958;2023-04-25T13:48:21;18.70;29.40
3678;DHT22;1855;50.934;6.958;2023-04-25T13:50:48;19.30;29.00
3678;DHT22;1855;50.934;6.958;2023-04-25T13:53:14;20.30;28.50
3678;DHT22;1855;50.934;6.958;2023-04-25T13:55:41;21.20;28.20
3678;DHT22;1855;50.934;6.958;2023-04-25T13:58:08;22.00;26.70
3678;DHT22;1855;50.934;6.958;2023-04-25T14:00:36;21.80;25.80
3678;DHT22;1855;50.934;6.958;2023-04-25T14:03:04;20.30;27.00
3678;DHT22;1855;50.934;6.958;2023-04-25T14:05:34;19.90;27.70
3678;DHT22;1855;50.934;6.958;2023-04-25T14:08:05;20.60;27.30
3678;DHT22;1855;50.934;6.958;2023-04-25T14:10:33;21.30;26.20
3678;DHT22;1855;50.934;6.958;2023-04-25T14:13:00;21.80;24.70
3678;DHT22;1855;50.934;6.958;2023-04-25T14:15:28;21.70;25.50
3678;DHT22;1855;50.934;6.958;2023-04-25T14:17:55;22.30;25.60
3678;DHT22;1855;50.934;6.958;2023-04-25T14:20:22;23.00;24.30
3678;DHT22;1855;50.934;6.958;2023-04-25T14:22:50;23.40;24.10
3678;DHT22;1855;50.934;6.958;2023-04-25T14:25:19;23.20;24.40
3678;DHT22;1855;50.934;6.958;2023-04-25T14:27:46;22.70;25.10
3678;DHT22;1855;50.934;6.958;2023-04-25T14:30:15;22.40;26.20
3678;DHT22;1855;50.934;6.958;2023-04-25T14:32:42;21.40;27.90
3678;DHT22;1855;50.934;6.958;2023-04-25T14:35:09;20.60;29.50
3678;DHT22;1855;50.934;6.958;2023-04-25T14:37:36;20.10;29.80
3678;DHT22;1855;50.934;6.958;2023-04-25T14:40:04;20.00;30.00
3678;DHT22;1855;50.934;6.958;2023-04-25T14:42:32;21.40;29.00
3678;DHT22;1855;50.934;6.958;2023-04-25T14:44:59;22.90;26.00
3678;DHT22;1855;50.934;6.958;2023-04-25T14:47:26;24.00;23.00
3678;DHT22;1855;50.934;6.958;2023-04-25T14:49:54;24.30;22.30
3678;DHT22;1855;50.934;6.958;2023-04-25T14:52:20;24.50;21.10
3678;DHT22;1855;50.934;6.958;2023-04-25T14:54:47;23.00;21.30
3678;DHT22;1855;50.934;6.958;2023-04-25T14:57:15;20.70;24.70
3678;DHT22;1855;50.934;6.958;2023-04-25T14:59:42;19.00;28.10
3678;DHT22;1855;50.934;6.958;2023-04-25T15:02:09;18.00;30.10
3678;DHT22;1855;50.934;6.958;2023-04-25T15:04:36;17.40;31.30
3678;DHT22;1855;50.934;6.958;2023-04-25T15:07:02;16.80;32.30
3678;DHT22;1855;50.934;6.958;2023-04-25T15:09:29;16.50;34.30
3678;DHT22;1855;50.934;6.958;2023-04-25T15:11:56;16.50;33.30
3678;DHT22;1855;50.934;6.958;2023-04-25T15:14:25;16.80;32.80
3678;DHT22;1855;50.934;6.958;2023-04-25T15:16:51;16.90;31.70
3678;DHT22;1855;50.934;6.958;2023-04-25T15:19:18;17.80;30.90
3678;DHT22;1855;50.934;6.958;2023-04-25T15:21:45;19.10;28.30
3678;DHT22;1855;50.934;6.958;2023-04-25T15:24:12;19.20;29.40
3678;DHT22;1855;50.934;6.958;2023-04-25T15:26:40;18.50;29.30
3678;DHT22;1855;50.934;6.958;2023-04-25T15:29:07;18.20;29.40
3678;DHT22;1855;50.934;6.958;2023-04-25T15:31:35;18.20;28.70
3678;DHT22;1855;50.934;6.958;2023-04-25T15:34:02;18.90;28.60
3678;DHT22;1855;50.934;6.958;2023-04-25T15:36:28;19.90;27.00
3678;DHT22;1855;50.934;6.958;2023-04-25T15:38:55;20.70;27.00
3678;DHT22;1855;50.934;6.958;2023-04-25T15:41:23;21.50;26.40
3678;DHT22;1855;50.934;6.958;2023-04-25T15:43:50;22.60;25.60
3678;DHT22;1855;50.934;6.958;2023-04-25T15:46:18;23.60;25.20
3678;DHT22;1855;50.934;6.958;2023-04-25T15:48:47;24.30;23.20
3678;DHT22;1855;50.934;6.958;2023-04-25T15:51:14;24.10;23.70
3678;DHT22;1855;50.934;6.958;2023-04-25T15:53:41;22.90;24.10
3678;DHT22;1855;50.934;6.958;2023-04-25T15:56:08;21.20;25.80
3678;DHT22;1855;50.934;6.958;2023-04-25T15:58:35;19.30;27.30
3678;DHT22;1855;50.934;6.958;2023-04-25T16:01:02;17.80;29.90
3678;DHT22;1855;50.934;6.958;2023-04-25T16:03:29;16.70;32.10
3678;DHT22;1855;50.934;6.958;2023-04-25T16:05:57;15.50;34.90
3678;DHT22;1855;50.934;6.958;2023-04-25T16:08:24;14.90;36.80
3678;DHT22;1855;50.934;6.958;2023-04-25T16:10:54;14.50;39.00